createdAt,value
2019-03-30T00:02:27.166Z,7.50
2019-03-30T00:04:59.345Z,7.40
2019-03-30T00:07:31.377Z,7.30
2019-03-30T00:10:03.549Z,7.30
2019-03-30T00:12:35.558Z,7.20
2019-03-30T00:15:07.854Z,7.20
2019-03-30T00:17:40.452Z,7.30
2019-03-30T00:20:12.600Z,7.30
2019-03-30T00:22:44.592Z,7.40
2019-03-30T00:25:16.907Z,7.40
2019-03-30T00:27:49.409Z,7.30
2019-03-30T00:30:21.578Z,7.30
2019-03-30T00:32:53.708Z,7.30
2019-03-30T00:35:25.722Z,7.20
2019-03-30T00:37:57.724Z,7.30
2019-03-30T00:40:30.097Z,7.30
2019-03-30T00:43:02.163Z,7.50
2019-03-30T00:45:34.082Z,7.60
2019-03-30T00:48:07.329Z,7.70
2019-03-30T00:50:39.321Z,7.50
2019-03-30T00:53:11.403Z,7.20
2019-03-30T00:55:43.429Z,7.20
2019-03-30T00:58:15.347Z,7.10
2019-03-30T01:00:47.879Z,7.00
2019-03-30T01:03:19.934Z,6.80
2019-03-30T01:05:52.021Z,6.70
2019-03-30T01:08:24.515Z,6.50
2019-03-30T01:10:56.500Z,6.40
2019-03-30T01:13:29.407Z,6.40
2019-03-30T01:16:01.551Z,6.30
2019-03-30T01:18:33.626Z,6.30
2019-03-30T01:21:05.804Z,6.30
2019-03-30T01:23:37.994Z,6.20
2019-03-30T01:26:10.510Z,6.20
2019-03-30T01:28:42.987Z,6.10
2019-03-30T01:31:15.046Z,6.10
2019-03-30T01:33:47.281Z,6.10
2019-03-30T01:36:19.438Z,6.00
2019-03-30T01:38:51.504Z,6.00
2019-03-30T01:41:23.505Z,6.00
2019-03-30T01:43:55.668Z,6.00
2019-03-30T01:46:28.081Z,6.10
2019-03-30T01:49:00.083Z,6.10
2019-03-30T01:51:32.078Z,6.10
2019-03-30T01:54:04.528Z,6.10
2019-03-30T01:56:36.669Z,6.10
2019-03-30T01:59:09.061Z,6.10
2019-03-30T02:01:41.208Z,6.00
2019-03-30T02:04:13.196Z,6.00
2019-03-30T02:06:45.188Z,6.00
2019-03-30T02:09:17.352Z,6.00
2019-03-30T02:11:49.296Z,6.00
2019-03-30T02:14:21.196Z,6.00
2019-03-30T02:16:53.258Z,5.90
2019-03-30T02:19:25.244Z,5.90
2019-03-30T02:21:57.394Z,5.90
2019-03-30T02:24:29.508Z,5.90
2019-03-30T02:27:01.858Z,5.80
2019-03-30T02:29:34.101Z,5.80
2019-03-30T02:32:06.198Z,5.80
2019-03-30T02:34:38.174Z,5.70
2019-03-30T02:37:10.262Z,5.70
2019-03-30T02:39:42.311Z,5.70
2019-03-30T02:42:14.310Z,5.70
2019-03-30T02:44:46.465Z,5.70
2019-03-30T02:47:18.592Z,5.70
2019-03-30T02:49:50.503Z,5.70
2019-03-30T02:52:23.162Z,5.70
2019-03-30T02:54:55.089Z,5.60
2019-03-30T02:57:27.153Z,5.60
2019-03-30T02:59:59.563Z,5.60
2019-03-30T03:02:31.667Z,5.70
2019-03-30T03:05:03.726Z,5.60
2019-03-30T03:07:36.150Z,5.60
2019-03-30T03:10:09.961Z,5.60
2019-03-30T03:12:41.904Z,5.60
2019-03-30T03:15:14.618Z,5.50
2019-03-30T03:17:46.588Z,5.50
2019-03-30T03:20:18.866Z,5.50
2019-03-30T03:22:51.047Z,5.50
2019-03-30T03:25:24.353Z,5.50
2019-03-30T03:27:56.475Z,5.40
2019-03-30T03:30:28.571Z,5.40
2019-03-30T03:33:00.640Z,5.40
2019-03-30T03:35:33.099Z,5.30
2019-03-30T03:38:05.363Z,5.30
2019-03-30T03:40:38.046Z,5.30
2019-03-30T03:43:10.147Z,5.30
2019-03-30T03:45:42.242Z,5.30
2019-03-30T03:48:14.332Z,5.30
2019-03-30T03:50:59.157Z,5.30
2019-03-30T03:53:33.100Z,5.20
2019-03-30T03:56:08.460Z,5.20
2019-03-30T03:58:43.471Z,5.10
2019-03-30T04:01:20.203Z,5.10
2019-03-30T04:03:56.066Z,5.10
2019-03-30T04:06:31.709Z,5.10
2019-03-30T04:09:07.685Z,5.00
2019-03-30T04:11:43.855Z,5.10
2019-03-30T04:14:19.997Z,5.20
2019-03-30T04:16:52.892Z,5.20
2019-03-30T04:19:24.955Z,5.20
2019-03-30T04:21:56.953Z,5.10
2019-03-30T04:24:28.873Z,5.10
2019-03-30T04:27:01.231Z,5.10
2019-03-30T04:29:33.214Z,5.10
2019-03-30T04:32:05.325Z,5.20
2019-03-30T04:34:37.502Z,5.30
2019-03-30T04:37:09.408Z,5.30
2019-03-30T04:39:41.349Z,5.20
2019-03-30T04:42:13.609Z,5.20
2019-03-30T04:44:45.966Z,5.10
2019-03-30T04:47:17.932Z,5.00
2019-03-30T04:49:50.318Z,5.00
2019-03-30T04:52:22.322Z,4.90
2019-03-30T04:54:54.344Z,5.10
2019-03-30T04:57:26.297Z,5.00
2019-03-30T04:59:58.310Z,5.00
2019-03-30T05:02:30.223Z,4.80
2019-03-30T05:05:02.174Z,4.90
2019-03-30T05:07:34.135Z,4.90
2019-03-30T05:10:06.398Z,4.90
2019-03-30T05:12:38.439Z,4.90
2019-03-30T05:15:11.227Z,4.80
2019-03-30T05:17:47.324Z,4.90
2019-03-30T05:20:17.342Z,4.90
2019-03-30T05:22:51.325Z,5.00
2019-03-30T05:25:23.710Z,5.10
2019-03-30T05:27:55.618Z,5.10
2019-03-30T05:30:27.729Z,5.10
2019-03-30T05:33:06.089Z,5.10
2019-03-30T05:35:33.642Z,5.10
2019-03-30T05:38:05.806Z,5.20
2019-03-30T05:40:37.927Z,5.20
2019-03-30T05:43:10.370Z,5.20
2019-03-30T05:45:42.397Z,5.30
2019-03-30T05:48:14.290Z,5.30
2019-03-30T05:50:46.510Z,5.50
2019-03-30T05:53:19.099Z,5.60
2019-03-30T05:55:51.053Z,5.50
2019-03-30T05:58:23.071Z,5.50
2019-03-30T06:00:55.615Z,5.50
2019-03-30T06:03:27.593Z,5.80
2019-03-30T06:05:59.519Z,5.90
2019-03-30T06:08:31.849Z,6.00
2019-03-30T06:11:04.176Z,6.30
2019-03-30T06:13:36.186Z,6.50
2019-03-30T06:16:08.237Z,6.80
2019-03-30T06:18:40.549Z,7.00
2019-03-30T06:21:12.822Z,7.30
2019-03-30T06:23:44.803Z,7.50
2019-03-30T06:26:16.896Z,7.70
2019-03-30T06:28:48.962Z,7.90
2019-03-30T06:31:20.947Z,8.20
2019-03-30T06:33:52.918Z,8.30
2019-03-30T06:36:24.982Z,8.50
2019-03-30T06:38:57.027Z,8.60
2019-03-30T06:41:29.392Z,8.70
2019-03-30T06:44:01.276Z,8.90
2019-03-30T06:46:33.347Z,9.00
2019-03-30T06:49:05.787Z,9.20
2019-03-30T06:51:37.860Z,9.30
2019-03-30T06:54:10.025Z,9.40
2019-03-30T06:56:42.085Z,9.60
2019-03-30T06:59:14.051Z,9.80
2019-03-30T07:01:46.728Z,10.00
2019-03-30T07:04:19.272Z,10.30
2019-03-30T07:06:52.721Z,10.70
2019-03-30T07:09:28.509Z,11.10
2019-03-30T07:12:03.830Z,11.20
2019-03-30T07:14:38.963Z,11.30
2019-03-30T07:17:13.889Z,11.50
2019-03-30T07:19:51.282Z,11.70
2019-03-30T07:22:23.298Z,11.70
2019-03-30T07:24:55.301Z,11.90
2019-03-30T07:27:27.507Z,11.90
2019-03-30T07:29:59.526Z,12.50
2019-03-30T07:32:32.308Z,14.10
2019-03-30T07:35:04.688Z,16.30
2019-03-30T07:37:36.887Z,18.20
2019-03-30T07:40:09.382Z,19.90
2019-03-30T07:42:42.103Z,21.50
2019-03-30T07:45:14.368Z,21.90
2019-03-30T07:47:46.866Z,22.70
2019-03-30T07:50:19.200Z,23.20
2019-03-30T07:52:51.348Z,24.00
2019-03-30T07:55:23.456Z,24.30
2019-03-30T07:57:55.640Z,24.40
2019-03-30T08:00:30.706Z,25.20
2019-03-30T08:03:01.807Z,25.30
2019-03-30T08:05:34.314Z,25.70
2019-03-30T08:08:06.405Z,26.10
2019-03-30T08:10:38.552Z,25.40
2019-03-30T08:13:10.615Z,26.00
2019-03-30T08:15:42.967Z,26.50
2019-03-30T08:18:15.134Z,26.20
2019-03-30T08:20:47.402Z,26.00
2019-03-30T08:23:19.485Z,26.20
2019-03-30T08:25:51.789Z,26.00
2019-03-30T08:28:24.215Z,25.70
2019-03-30T08:30:56.121Z,25.90
2019-03-30T08:33:28.588Z,26.30
2019-03-30T08:36:01.218Z,27.10
2019-03-30T08:38:33.205Z,26.70
2019-03-30T08:41:05.276Z,27.40
2019-03-30T08:43:37.309Z,26.50
2019-03-30T08:46:09.311Z,26.40
2019-03-30T08:48:41.553Z,25.60
2019-03-30T08:51:13.557Z,26.00
2019-03-30T08:53:54.578Z,27.10
2019-03-30T08:56:19.257Z,26.60
2019-03-30T08:58:51.239Z,26.10
2019-03-30T09:01:23.419Z,26.10
2019-03-30T09:03:55.868Z,25.90
2019-03-30T09:06:27.940Z,25.90
2019-03-30T09:09:00.447Z,25.90
2019-03-30T09:11:32.592Z,26.50
2019-03-30T09:14:04.745Z,26.60
2019-03-30T09:16:37.171Z,26.10
2019-03-30T09:19:09.218Z,26.30
2019-03-30T09:21:41.211Z,26.70
2019-03-30T09:24:13.300Z,26.50
2019-03-30T09:26:45.814Z,26.60
2019-03-30T09:29:18.181Z,26.30
2019-03-30T09:31:50.229Z,26.10
2019-03-30T09:34:22.376Z,26.30
2019-03-30T09:36:54.696Z,26.70
2019-03-30T09:39:27.161Z,26.30
2019-03-30T09:41:59.092Z,26.30
2019-03-30T09:44:31.093Z,26.70
2019-03-30T09:47:08.391Z,27.60
2019-03-30T09:49:40.421Z,27.70
2019-03-30T09:52:12.660Z,27.50
2019-03-30T09:54:44.862Z,27.20
2019-03-30T09:57:16.905Z,27.50
2019-03-30T09:59:49.538Z,27.90
2019-03-30T10:02:21.545Z,27.50
2019-03-30T10:04:53.587Z,28.00
2019-03-30T10:07:26.141Z,27.80
2019-03-30T10:09:58.242Z,27.90
2019-03-30T10:12:30.417Z,27.60
2019-03-30T10:15:02.485Z,27.40
2019-03-30T10:17:34.497Z,26.60
2019-03-30T10:20:07.670Z,26.30
2019-03-30T10:22:42.186Z,26.30
2019-03-30T10:25:14.202Z,26.30
2019-03-30T10:27:46.297Z,26.50
2019-03-30T10:30:18.539Z,26.10
2019-03-30T10:32:51.006Z,26.50
2019-03-30T10:35:23.101Z,26.90
2019-03-30T10:37:55.123Z,26.60
2019-03-30T10:40:27.296Z,26.40
2019-03-30T10:42:59.361Z,26.50
2019-03-30T10:45:31.434Z,26.00
2019-03-30T10:48:03.436Z,25.90
2019-03-30T10:50:35.436Z,25.20
2019-03-30T10:53:07.574Z,25.50
2019-03-30T10:55:40.097Z,26.10
2019-03-30T10:58:12.130Z,26.20
2019-03-30T11:00:44.344Z,26.50
2019-03-30T11:03:16.357Z,26.30
2019-03-30T11:05:48.359Z,26.40
2019-03-30T11:08:20.301Z,26.20
2019-03-30T11:10:52.400Z,26.30
2019-03-30T11:13:24.312Z,26.40
2019-03-30T11:15:56.214Z,26.40
2019-03-30T11:18:28.146Z,26.60
2019-03-30T11:21:00.255Z,26.50
2019-03-30T11:23:32.352Z,26.00
2019-03-30T11:26:04.594Z,25.30
2019-03-30T11:28:36.949Z,25.50
2019-03-30T11:31:09.023Z,25.40
2019-03-30T11:33:41.028Z,25.60
2019-03-30T11:36:32.078Z,25.60
2019-03-30T11:39:05.019Z,25.70
2019-03-30T11:41:36.996Z,25.40
2019-03-30T11:44:08.988Z,25.20
2019-03-30T11:46:40.905Z,24.80
2019-03-30T11:49:13.238Z,24.00
2019-03-30T11:51:45.658Z,23.50
2019-03-30T11:54:18.044Z,23.90
2019-03-30T11:56:50.037Z,24.10
2019-03-30T11:59:22.119Z,24.00
2019-03-30T12:01:54.037Z,23.70
2019-03-30T12:04:26.074Z,23.60
2019-03-30T12:06:58.391Z,23.20
2019-03-30T12:09:30.466Z,23.10
2019-03-30T12:12:03.856Z,22.90
2019-03-30T12:14:35.836Z,22.70
2019-03-30T12:17:08.325Z,22.40
2019-03-30T12:19:40.206Z,21.80
2019-03-30T12:22:12.146Z,21.60
2019-03-30T12:24:44.272Z,21.70
2019-03-30T12:27:16.790Z,21.80
2019-03-30T12:29:49.184Z,22.00
2019-03-30T12:32:21.325Z,21.90
2019-03-30T12:34:53.334Z,21.70
2019-03-30T12:37:25.470Z,21.80
2019-03-30T12:39:58.403Z,21.70
2019-03-30T12:42:30.674Z,22.10
2019-03-30T12:45:02.764Z,22.30
2019-03-30T12:47:34.845Z,22.50
2019-03-30T12:50:07.371Z,22.70
2019-03-30T12:52:39.470Z,22.60
2019-03-30T12:55:12.357Z,22.60
2019-03-30T12:57:44.294Z,22.40
2019-03-30T13:00:16.801Z,22.10
2019-03-30T13:02:48.779Z,21.80
2019-03-30T13:05:20.889Z,21.60
2019-03-30T13:07:52.913Z,22.00
2019-03-30T13:10:25.017Z,22.20
2019-03-30T13:12:56.930Z,22.20
2019-03-30T13:15:29.072Z,22.00
2019-03-30T13:18:01.067Z,22.10
2019-03-30T13:20:32.975Z,22.10
2019-03-30T13:23:05.046Z,22.00
2019-03-30T13:25:37.019Z,22.10
2019-03-30T13:28:09.109Z,22.10
2019-03-30T13:30:41.487Z,22.20
2019-03-30T13:33:13.747Z,22.20
2019-03-30T13:35:45.743Z,22.20
2019-03-30T13:38:20.629Z,22.10
2019-03-30T13:40:51.646Z,21.90
2019-03-30T13:43:23.577Z,21.90
2019-03-30T13:45:55.824Z,21.80
2019-03-30T13:48:27.752Z,21.90
2019-03-30T13:51:00.215Z,21.70
2019-03-30T13:53:32.577Z,21.70
2019-03-30T13:56:16.710Z,21.70
2019-03-30T13:58:38.267Z,21.50
2019-03-30T14:01:10.327Z,21.60
2019-03-30T14:03:42.360Z,21.50
2019-03-30T14:06:14.441Z,21.50
2019-03-30T14:08:46.414Z,21.50
2019-03-30T14:11:18.429Z,21.50
2019-03-30T14:13:50.419Z,21.40
2019-03-30T14:16:22.767Z,21.30
2019-03-30T14:18:55.031Z,21.30
2019-03-30T14:21:27.349Z,21.40
2019-03-30T14:23:59.296Z,21.30
2019-03-30T14:26:31.959Z,21.40
2019-03-30T14:29:04.633Z,21.40
2019-03-30T14:31:36.621Z,21.10
2019-03-30T14:34:08.970Z,21.00
2019-03-30T14:36:41.242Z,21.10
2019-03-30T14:39:13.224Z,21.10
2019-03-30T14:41:45.552Z,21.10
2019-03-30T14:44:17.537Z,20.90
2019-03-30T14:46:50.295Z,20.70
2019-03-30T14:49:22.298Z,20.80
2019-03-30T14:51:54.557Z,20.90
2019-03-30T14:54:27.232Z,20.80
2019-03-30T14:56:59.184Z,20.80
2019-03-30T14:59:31.758Z,20.70
2019-03-30T15:02:04.052Z,20.80
2019-03-30T15:04:36.524Z,20.80
2019-03-30T15:07:08.940Z,20.80
2019-03-30T15:09:41.014Z,20.80
2019-03-30T15:12:12.996Z,20.80
2019-03-30T15:14:44.981Z,20.80
2019-03-30T15:17:17.333Z,21.00
2019-03-30T15:19:49.743Z,21.00
2019-03-30T15:22:22.109Z,20.90
2019-03-30T15:24:54.345Z,20.70
2019-03-30T15:27:26.264Z,20.60
2019-03-30T15:29:58.631Z,20.40
2019-03-30T15:32:30.550Z,20.30
2019-03-30T15:35:02.684Z,20.30
2019-03-30T15:37:34.925Z,20.30
2019-03-30T15:40:08.512Z,20.20
2019-03-30T15:42:41.069Z,20.10
2019-03-30T15:45:14.775Z,20.00
2019-03-30T15:47:47.070Z,20.00
2019-03-30T15:50:20.584Z,19.80
2019-03-30T15:52:52.658Z,19.80
2019-03-30T15:55:24.826Z,19.80
2019-03-30T15:57:57.005Z,19.70
2019-03-30T16:00:29.414Z,19.50
2019-03-30T16:03:01.794Z,19.40
2019-03-30T16:05:33.810Z,19.30
2019-03-30T16:08:05.967Z,19.30
2019-03-30T16:10:38.062Z,19.20
2019-03-30T16:13:10.475Z,19.10
2019-03-30T16:15:44.594Z,19.10
2019-03-30T16:18:16.751Z,19.00
2019-03-30T16:20:48.826Z,18.90
2019-03-30T16:23:20.854Z,18.90
2019-03-30T16:25:53.312Z,18.90
2019-03-30T16:28:25.298Z,18.80
2019-03-30T16:30:57.628Z,18.70
2019-03-30T16:33:29.731Z,18.70
2019-03-30T16:36:02.835Z,18.70
2019-03-30T16:38:35.472Z,18.70
2019-03-30T16:41:07.534Z,18.50
2019-03-30T16:43:39.482Z,18.50
2019-03-30T16:46:12.318Z,18.50
2019-03-30T16:48:44.667Z,18.40
2019-03-30T16:51:16.876Z,18.30
2019-03-30T16:53:48.877Z,18.20
2019-03-30T16:56:20.793Z,18.20
2019-03-30T16:58:52.794Z,18.20
2019-03-30T17:01:24.755Z,18.10
2019-03-30T17:03:57.074Z,18.00
2019-03-30T17:06:29.577Z,18.00
2019-03-30T17:09:01.651Z,18.00
2019-03-30T17:11:33.551Z,17.90
2019-03-30T17:14:05.624Z,17.80
2019-03-30T17:16:37.651Z,17.80
2019-03-30T17:19:09.591Z,17.70
2019-03-30T17:21:41.580Z,17.70
2019-03-30T17:24:13.506Z,17.60
2019-03-30T17:26:45.465Z,17.60
2019-03-30T17:29:17.534Z,17.50
2019-03-30T17:31:49.529Z,17.50
2019-03-30T17:34:21.611Z,17.30
2019-03-30T17:36:53.596Z,17.30
2019-03-30T17:39:25.858Z,17.20
2019-03-30T17:41:58.087Z,17.10
2019-03-30T17:44:30.355Z,17.10
2019-03-30T17:47:02.443Z,17.00
2019-03-30T17:49:34.365Z,16.90
2019-03-30T17:52:06.424Z,16.90
2019-03-30T17:54:39.944Z,16.80
2019-03-30T17:57:12.110Z,16.80
2019-03-30T17:59:44.037Z,16.70
2019-03-30T18:02:16.125Z,16.60
2019-03-30T18:04:48.189Z,16.50
2019-03-30T18:07:21.269Z,16.50
2019-03-30T18:09:53.322Z,16.30
2019-03-30T18:12:25.338Z,16.30
2019-03-30T18:14:57.351Z,16.20
2019-03-30T18:17:29.336Z,16.00
2019-03-30T18:20:01.403Z,15.80
2019-03-30T18:22:33.458Z,15.60
2019-03-30T18:25:06.169Z,15.60
2019-03-30T18:27:38.673Z,15.50
2019-03-30T18:30:11.713Z,15.40
2019-03-30T18:32:44.341Z,15.20
2019-03-30T18:35:16.506Z,15.10
2019-03-30T18:37:48.775Z,15.10
2019-03-30T18:40:31.027Z,15.00
2019-03-30T18:43:04.557Z,15.00
2019-03-30T18:45:36.595Z,14.80
2019-03-30T18:48:19.034Z,14.80
2019-03-30T18:50:51.159Z,14.60
2019-03-30T18:53:23.322Z,14.50
2019-03-30T18:55:55.341Z,14.50
2019-03-30T18:58:40.738Z,14.40
2019-03-30T19:01:01.226Z,14.30
2019-03-30T19:03:33.423Z,14.30
2019-03-30T19:06:06.127Z,14.30
2019-03-30T19:08:38.261Z,14.20
2019-03-30T19:11:10.906Z,14.10
2019-03-30T19:13:43.050Z,14.10
2019-03-30T19:16:15.044Z,14.00
2019-03-30T19:18:47.110Z,13.90
2019-03-30T19:21:19.396Z,13.80
2019-03-30T19:23:51.670Z,13.70
2019-03-30T19:26:23.565Z,13.80
2019-03-30T19:28:56.790Z,13.70
2019-03-30T19:31:28.984Z,13.70
2019-03-30T19:34:00.989Z,13.60
2019-03-30T19:36:32.908Z,13.60
2019-03-30T19:39:08.433Z,13.50
2019-03-30T19:41:40.425Z,13.40
2019-03-30T19:44:13.279Z,13.30
2019-03-30T19:46:45.384Z,13.20
2019-03-30T19:49:17.575Z,13.20
2019-03-30T19:51:49.826Z,13.20
2019-03-30T19:54:22.514Z,13.10
2019-03-30T19:56:54.502Z,13.10
2019-03-30T19:59:26.432Z,13.00
2019-03-30T20:01:58.677Z,13.00
2019-03-30T20:04:30.669Z,12.90
2019-03-30T20:07:02.675Z,12.80
2019-03-30T20:09:34.784Z,12.60
2019-03-30T20:12:07.666Z,12.50
2019-03-30T20:14:40.054Z,12.50
2019-03-30T20:17:12.429Z,12.40
2019-03-30T20:19:44.699Z,12.30
2019-03-30T20:22:16.697Z,12.30
2019-03-30T20:24:48.682Z,12.20
2019-03-30T20:27:20.690Z,12.10
2019-03-30T20:29:52.707Z,12.10
2019-03-30T20:32:24.649Z,12.10
2019-03-30T20:34:56.562Z,12.00
2019-03-30T20:37:28.560Z,11.90
2019-03-30T20:40:00.533Z,11.80
2019-03-30T20:42:32.711Z,11.70
2019-03-30T20:45:06.441Z,11.60
2019-03-30T20:47:38.620Z,11.60
2019-03-30T20:50:11.424Z,11.60
2019-03-30T20:52:43.421Z,11.50
2019-03-30T20:55:15.864Z,11.50
2019-03-30T20:57:47.944Z,11.40
2019-03-30T21:00:20.303Z,11.30
2019-03-30T21:02:52.808Z,11.30
2019-03-30T21:05:24.894Z,11.20
2019-03-30T21:07:57.242Z,11.10
2019-03-30T21:10:29.595Z,11.10
2019-03-30T21:13:01.601Z,11.00
2019-03-30T21:15:33.716Z,11.00
2019-03-30T21:18:05.955Z,10.90
2019-03-30T21:20:37.959Z,10.90
2019-03-30T21:23:09.950Z,10.80
2019-03-30T21:25:42.226Z,10.80
2019-03-30T21:28:14.279Z,10.70
2019-03-30T21:30:46.418Z,10.60
2019-03-30T21:33:18.321Z,10.60
2019-03-30T21:35:50.421Z,10.50
2019-03-30T21:38:22.691Z,10.40
2019-03-30T21:40:55.005Z,10.30
2019-03-30T21:43:27.037Z,10.20
2019-03-30T21:45:58.986Z,10.20
2019-03-30T21:48:30.980Z,10.20
2019-03-30T21:51:03.274Z,10.20
2019-03-30T21:53:35.634Z,10.10
2019-03-30T21:56:07.719Z,10.10
2019-03-30T21:58:39.971Z,10.20
2019-03-30T22:01:12.250Z,10.10
2019-03-30T22:03:45.440Z,10.10
2019-03-30T22:06:17.601Z,10.10
2019-03-30T22:08:52.802Z,10.00
2019-03-30T22:11:24.744Z,10.00
2019-03-30T22:13:56.725Z,10.00
2019-03-30T22:16:28.802Z,9.90
2019-03-30T22:19:00.807Z,9.90
2019-03-30T22:21:32.693Z,9.80
2019-03-30T22:24:04.673Z,9.70
2019-03-30T22:26:36.786Z,9.60
2019-03-30T22:29:09.084Z,9.60
2019-03-30T22:31:41.396Z,9.50
2019-03-30T22:34:13.360Z,9.60
2019-03-30T22:36:45.381Z,9.50
2019-03-30T22:39:17.287Z,9.50
2019-03-30T22:41:49.279Z,9.40
2019-03-30T22:44:21.349Z,9.40
2019-03-30T22:46:53.274Z,9.30
2019-03-30T22:49:25.258Z,9.30
2019-03-30T22:51:57.534Z,9.30
2019-03-30T22:54:29.451Z,9.30
2019-03-30T22:57:01.390Z,9.40
2019-03-30T22:59:33.371Z,9.30
2019-03-30T23:02:05.778Z,9.30
2019-03-30T23:04:38.156Z,9.20
2019-03-30T23:07:10.253Z,9.00
2019-03-30T23:09:42.297Z,9.00
2019-03-30T23:12:14.523Z,8.90
2019-03-30T23:14:46.496Z,8.80
2019-03-30T23:17:18.469Z,8.80
2019-03-30T23:19:50.376Z,8.80
2019-03-30T23:22:22.308Z,8.90
2019-03-30T23:24:54.958Z,8.90
2019-03-30T23:27:27.302Z,8.90
2019-03-30T23:29:59.204Z,8.80
2019-03-30T23:32:31.203Z,8.80
2019-03-30T23:35:03.524Z,8.80
2019-03-30T23:37:35.583Z,8.70
2019-03-30T23:40:08.101Z,8.70
2019-03-30T23:42:40.152Z,8.70
2019-03-30T23:45:14.024Z,8.60
2019-03-30T23:47:46.556Z,8.70
2019-03-30T23:50:18.965Z,8.70
2019-03-30T23:52:51.712Z,8.70
2019-03-30T23:55:23.757Z,8.60
2019-03-30T23:57:55.804Z,8.80
